createdAt,value
2018-07-26T00:00:30.673Z,29.08
2018-07-26T00:01:30.701Z,28.89
2018-07-26T00:02:30.732Z,29.66
2018-07-26T00:03:30.756Z,29.28
2018-07-26T00:04:30.788Z,29.28
2018-07-26T00:05:30.820Z,29.47
2018-07-26T00:06:30.586Z,29.18
2018-07-26T00:07:30.872Z,29.57
2018-07-26T00:08:30.899Z,29.66
2018-07-26T00:09:30.929Z,29.66
2018-07-26T00:10:30.960Z,29.76
2018-07-26T00:11:30.726Z,29.76
2018-07-26T00:12:30.756Z,29.76
2018-07-26T00:13:31.044Z,29.86
2018-07-26T00:14:31.070Z,29.86
2018-07-26T00:15:31.100Z,29.75
2018-07-26T00:16:31.134Z,30.04
2018-07-26T00:17:31.163Z,29.94
2018-07-26T00:18:31.188Z,29.85
2018-07-26T00:19:31.215Z,29.85
2018-07-26T00:20:31.242Z,29.94
2018-07-26T00:21:31.292Z,29.94
2018-07-26T00:22:31.304Z,30.14
2018-07-26T00:23:31.327Z,30.04
2018-07-26T00:24:31.098Z,30.33
2018-07-26T00:25:31.386Z,30.43
2018-07-26T00:26:31.417Z,30.33
2018-07-26T00:27:31.479Z,30.33
2018-07-26T00:28:31.474Z,30.41
2018-07-26T00:29:31.502Z,30.24
2018-07-26T00:30:31.528Z,30.43
2018-07-26T00:31:31.556Z,30.72
2018-07-26T00:32:31.586Z,30.62
2018-07-26T00:33:31.613Z,30.62
2018-07-26T00:34:31.645Z,30.9
2018-07-26T00:35:31.445Z,30.71
2018-07-26T00:36:31.703Z,30.71
2018-07-26T00:37:31.467Z,30.51
2018-07-26T00:38:31.752Z,30.61
2018-07-26T00:39:31.783Z,30.8
2018-07-26T00:40:31.812Z,30.51
2018-07-26T00:41:31.838Z,30.61
2018-07-26T00:42:31.609Z,30.41
2018-07-26T00:43:31.893Z,31.19
2018-07-26T00:44:31.923Z,30.9
2018-07-26T00:45:31.694Z,31
2018-07-26T00:46:31.979Z,31.1
2018-07-26T00:47:32.008Z,30.71
2018-07-26T00:48:32.037Z,30.71
2018-07-26T00:49:32.066Z,31.19
2018-07-26T00:50:31.838Z,31.19
2018-07-26T00:51:32.123Z,31.08
2018-07-26T00:52:32.150Z,31.66
2018-07-26T00:53:32.189Z,31.37
2018-07-26T00:54:32.204Z,31.29
2018-07-26T00:55:32.231Z,31.37
2018-07-26T00:56:32.276Z,31.37
2018-07-26T00:57:32.287Z,31.37
2018-07-26T00:58:32.316Z,31.37
2018-07-26T00:59:32.343Z,31.66
2018-07-26T01:00:32.372Z,31.57
2018-07-26T01:01:32.142Z,31.66
2018-07-26T01:02:32.433Z,31.85
2018-07-26T01:03:32.460Z,31.57
2018-07-26T01:04:32.487Z,31.57
2018-07-26T01:05:32.516Z,31.47
2018-07-26T01:06:32.280Z,31.47
2018-07-26T01:07:32.569Z,31.47
2018-07-26T01:08:32.338Z,32.05
2018-07-26T01:09:32.703Z,32.04
2018-07-26T01:10:32.653Z,31.95
2018-07-26T01:11:32.419Z,31.95
2018-07-26T01:12:32.710Z,32.04
2018-07-26T01:13:32.737Z,31.94
2018-07-26T01:14:32.769Z,32.23
2018-07-26T01:15:32.796Z,32.15
2018-07-26T01:16:32.823Z,32.23
2018-07-26T01:17:32.590Z,32.13
2018-07-26T01:18:32.614Z,32.13
2018-07-26T01:19:32.901Z,31.94
2018-07-26T01:20:32.934Z,31.94
2018-07-26T01:21:32.961Z,32.04
2018-07-26T01:22:32.725Z,31.84
2018-07-26T01:23:32.752Z,32.04
2018-07-26T01:24:33.042Z,31.94
2018-07-26T01:25:33.069Z,32.62
2018-07-26T01:26:33.095Z,32.62
2018-07-26T01:27:33.122Z,32.42
2018-07-26T01:28:33.156Z,32.32
2018-07-26T01:29:33.180Z,32.91
2018-07-26T01:30:32.948Z,32.52
2018-07-26T01:31:33.240Z,32.71
2018-07-26T01:32:33.264Z,32.71
2018-07-26T01:33:33.294Z,32.6
2018-07-26T01:34:33.321Z,32.89
2018-07-26T01:35:33.344Z,32.81
2018-07-26T01:36:33.374Z,32.5
2018-07-26T01:37:33.402Z,32.7
2018-07-26T01:38:33.168Z,32.5
2018-07-26T01:39:33.457Z,32.7
2018-07-26T01:40:33.221Z,32.7
2018-07-26T01:41:33.510Z,32.7
2018-07-26T01:42:33.538Z,32.89
2018-07-26T01:43:33.565Z,33.18
2018-07-26T01:44:33.589Z,33.09
2018-07-26T01:45:33.621Z,33.38
2018-07-26T01:46:33.646Z,33.47
2018-07-26T01:47:33.671Z,32.99
2018-07-26T01:48:33.698Z,33.28
2018-07-26T01:49:33.468Z,32.97
2018-07-26T01:50:33.758Z,33.28
2018-07-26T01:51:33.786Z,33.18
2018-07-26T01:52:33.549Z,33.17
2018-07-26T01:53:33.579Z,33.28
2018-07-26T01:54:33.868Z,33.07
2018-07-26T01:55:33.934Z,33.46
2018-07-26T01:56:33.924Z,33.65
2018-07-26T01:57:33.720Z,33.36
2018-07-26T01:58:33.973Z,33.26
2018-07-26T01:59:33.741Z,33.26
2018-07-26T02:00:34.033Z,33.75
2018-07-26T02:01:34.078Z,33.56
2018-07-26T02:02:34.082Z,33.56
2018-07-26T02:03:34.111Z,33.46
2018-07-26T02:04:34.139Z,33.65
2018-07-26T02:05:34.167Z,33.84
2018-07-26T02:06:34.197Z,34.04
2018-07-26T02:07:34.223Z,33.84
2018-07-26T02:08:34.257Z,34.04
2018-07-26T02:09:34.275Z,34.04
2018-07-26T02:10:34.301Z,33.84
2018-07-26T02:11:34.325Z,33.73
2018-07-26T02:12:34.352Z,34.02
2018-07-26T02:13:34.381Z,34.04
2018-07-26T02:14:34.408Z,34.02
2018-07-26T02:15:34.450Z,33.92
2018-07-26T02:16:34.480Z,34.02
2018-07-26T02:17:34.506Z,34.02
2018-07-26T02:18:34.257Z,34.12
2018-07-26T02:19:34.566Z,33.92
2018-07-26T02:20:34.311Z,34.22
2018-07-26T02:21:34.597Z,34.02
2018-07-26T02:22:34.364Z,34.22
2018-07-26T02:23:34.654Z,34.12
2018-07-26T02:24:34.674Z,34.22
2018-07-26T02:25:34.706Z,34.22
2018-07-26T02:26:34.729Z,34.51
2018-07-26T02:27:34.499Z,34.51
2018-07-26T02:28:34.788Z,34.41
2018-07-26T02:29:34.816Z,34.22
2018-07-26T02:30:34.838Z,34.22
2018-07-26T02:31:34.866Z,34.31
2018-07-26T02:32:34.893Z,34.22
2018-07-26T02:33:34.661Z,34.31
2018-07-26T02:34:34.688Z,34.31
2018-07-26T02:35:34.981Z,34.41
2018-07-26T02:36:34.745Z,34.61
2018-07-26T02:37:35.028Z,34.8
2018-07-26T02:38:35.053Z,34.8
2018-07-26T02:39:35.084Z,34.97
2018-07-26T02:40:35.109Z,34.8
2018-07-26T02:41:34.873Z,34.88
2018-07-26T02:42:35.162Z,34.88
2018-07-26T02:43:35.188Z,35.27
2018-07-26T02:44:35.213Z,35.17
2018-07-26T02:45:34.984Z,35.27
2018-07-26T02:46:35.265Z,35.27
2018-07-26T02:47:35.311Z,35.56
2018-07-26T02:48:35.063Z,35.56
2018-07-26T02:49:35.348Z,35.46
2018-07-26T02:50:35.115Z,35.56
2018-07-26T02:51:35.403Z,35.66
2018-07-26T02:52:35.430Z,35.46
2018-07-26T02:53:35.196Z,35.36
2018-07-26T02:54:35.222Z,35.46
2018-07-26T02:55:35.506Z,35.66
2018-07-26T02:56:35.531Z,35.66
2018-07-26T02:57:35.562Z,35.66
2018-07-26T02:58:35.589Z,35.66
2018-07-26T02:59:35.618Z,35.66
2018-07-26T03:00:35.381Z,35.66
2018-07-26T03:01:35.669Z,35.46
2018-07-26T03:02:35.708Z,35.46
2018-07-26T03:03:35.459Z,35.56
2018-07-26T03:04:35.744Z,35.46
2018-07-26T03:05:35.777Z,35.35
2018-07-26T03:06:35.797Z,36.24
2018-07-26T03:07:35.828Z,35.93
2018-07-26T03:08:35.852Z,35.73
2018-07-26T03:09:35.879Z,35.75
2018-07-26T03:10:35.911Z,35.75
2018-07-26T03:11:35.948Z,35.73
2018-07-26T03:12:35.719Z,35.83
2018-07-26T03:13:35.727Z,35.75
2018-07-26T03:14:36.010Z,35.64
2018-07-26T03:15:36.043Z,35.64
2018-07-26T03:16:36.066Z,36.02
2018-07-26T03:17:36.095Z,36.22
2018-07-26T03:18:36.114Z,36.22
2018-07-26T03:19:36.160Z,36.12
2018-07-26T03:20:36.169Z,36.51
2018-07-26T03:21:36.197Z,36.51
2018-07-26T03:22:36.218Z,36.32
2018-07-26T03:23:36.248Z,36.8
2018-07-26T03:24:36.279Z,36.8
2018-07-26T03:25:36.303Z,36.32
2018-07-26T03:26:36.335Z,36.32
2018-07-26T03:27:36.351Z,36.7
2018-07-26T03:28:36.381Z,36.51
2018-07-26T03:29:36.401Z,36.7
2018-07-26T03:30:36.437Z,36.51
2018-07-26T03:31:36.197Z,36.7
2018-07-26T03:32:36.485Z,36.6
2018-07-26T03:33:36.516Z,36.7
2018-07-26T03:34:36.532Z,36.9
2018-07-26T03:35:36.563Z,36.68
2018-07-26T03:36:36.583Z,36.88
2018-07-26T03:37:36.614Z,36.3
2018-07-26T03:38:36.379Z,36.88
2018-07-26T03:39:36.668Z,37.07
2018-07-26T03:40:36.696Z,37.07
2018-07-26T03:41:36.717Z,36.98
2018-07-26T03:42:36.746Z,36.98
2018-07-26T03:43:36.989Z,36.98
2018-07-26T03:44:36.799Z,36.98
2018-07-26T03:45:36.562Z,37.07
2018-07-26T03:46:36.856Z,36.98
2018-07-26T03:47:36.875Z,37.07
2018-07-26T03:48:36.900Z,37.07
2018-07-26T03:49:36.930Z,36.98
2018-07-26T03:50:36.952Z,36.98
2018-07-26T03:51:36.977Z,36.68
2018-07-26T03:52:37.035Z,37.46
2018-07-26T03:53:37.031Z,37.26
2018-07-26T03:54:37.056Z,37.36
2018-07-26T03:55:36.821Z,37.26
2018-07-26T03:56:37.108Z,37.55
2018-07-26T03:57:37.132Z,37.94
2018-07-26T03:58:37.161Z,37.75
2018-07-26T03:59:37.186Z,37.75
2018-07-26T04:00:37.210Z,38.04
2018-07-26T04:01:37.240Z,37.75
2018-07-26T04:02:37.264Z,37.85
2018-07-26T04:03:37.289Z,37.73
2018-07-26T04:04:37.313Z,37.82
2018-07-26T04:05:37.560Z,37.75
2018-07-26T04:06:37.371Z,38.12
2018-07-26T04:07:37.393Z,37.17
2018-07-26T04:08:37.420Z,38.04
2018-07-26T04:09:37.444Z,37.46
2018-07-26T04:10:37.469Z,37.94
2018-07-26T04:11:37.495Z,38.13
2018-07-26T04:12:37.261Z,38.12
2018-07-26T04:13:37.548Z,38.13
2018-07-26T04:14:37.580Z,38.12
2018-07-26T04:15:37.598Z,38.02
2018-07-26T04:16:37.631Z,37.82
2018-07-26T04:17:37.668Z,37.73
2018-07-26T04:18:37.677Z,37.73
2018-07-26T04:19:37.445Z,37.63
2018-07-26T04:20:37.734Z,37.82
2018-07-26T04:21:37.754Z,37.63
2018-07-26T04:22:37.779Z,38.31
2018-07-26T04:23:37.806Z,38.5
2018-07-26T04:24:37.836Z,38.41
2018-07-26T04:25:37.858Z,38.31
2018-07-26T04:26:37.884Z,38.41
2018-07-26T04:27:37.650Z,38.31
2018-07-26T04:28:37.939Z,38.41
2018-07-26T04:29:37.960Z,38.5
2018-07-26T04:30:37.988Z,38.41
2018-07-26T04:31:38.013Z,38.6
2018-07-26T04:32:38.036Z,38.6
2018-07-26T04:33:38.051Z,38.6
2018-07-26T04:34:38.092Z,38.6
2018-07-26T04:35:38.119Z,38.31
2018-07-26T04:36:38.139Z,38.7
2018-07-26T04:37:37.908Z,38.7
2018-07-26T04:38:38.195Z,38.31
2018-07-26T04:39:38.218Z,38.6
2018-07-26T04:40:37.992Z,38.6
2018-07-26T04:41:38.269Z,38.5
2018-07-26T04:42:38.301Z,38.7
2018-07-26T04:43:38.319Z,38.5
2018-07-26T04:44:38.085Z,38.79
2018-07-26T04:45:38.379Z,38.79
2018-07-26T04:46:38.410Z,38.6
2018-07-26T04:47:38.421Z,38.79
2018-07-26T04:48:38.449Z,38.7
2018-07-26T04:49:38.215Z,38.79
2018-07-26T04:50:38.575Z,38.7
2018-07-26T04:51:38.525Z,38.7
2018-07-26T04:52:38.566Z,38.79
2018-07-26T04:53:38.581Z,38.6
2018-07-26T04:54:38.748Z,38.79
2018-07-26T04:55:38.627Z,38.99
2018-07-26T04:56:38.653Z,38.99
2018-07-26T04:57:38.678Z,38.89
2018-07-26T04:58:38.703Z,38.99
2018-07-26T04:59:38.731Z,39.09
2018-07-26T05:00:38.493Z,38.89
2018-07-26T05:01:38.788Z,39.09
2018-07-26T05:02:38.805Z,39.28
2018-07-26T05:03:38.832Z,39.67
2018-07-26T05:04:38.859Z,39.47
2018-07-26T05:05:38.888Z,39.57
2018-07-26T05:06:38.648Z,39.57
2018-07-26T05:07:38.933Z,39.47
2018-07-26T05:08:38.961Z,39.18
2018-07-26T05:09:38.992Z,39.67
2018-07-26T05:10:39.012Z,39.76
2018-07-26T05:11:38.774Z,39.86
2018-07-26T05:12:38.811Z,40.05
2018-07-26T05:13:38.826Z,40.05
2018-07-26T05:14:39.112Z,39.95
2018-07-26T05:15:39.139Z,39.67
2018-07-26T05:16:39.173Z,40.15
2018-07-26T05:17:39.191Z,39.95
2018-07-26T05:18:39.368Z,39.95
2018-07-26T05:19:38.981Z,40.05
2018-07-26T05:20:39.263Z,40.05
2018-07-26T05:21:39.297Z,40.15
2018-07-26T05:22:39.319Z,40.25
2018-07-26T05:23:39.342Z,40.25
2018-07-26T05:24:39.105Z,40.25
2018-07-26T05:25:39.130Z,40.25
2018-07-26T05:26:39.166Z,40.25
2018-07-26T05:27:39.538Z,40.25
2018-07-26T05:28:39.351Z,40.44
2018-07-26T05:29:39.509Z,40.34
2018-07-26T05:30:39.261Z,40.34
2018-07-26T05:31:39.550Z,40.34
2018-07-26T05:32:39.567Z,40.34
2018-07-26T05:33:39.594Z,40.63
2018-07-26T05:34:39.641Z,40.63
2018-07-26T05:35:39.418Z,40.73
2018-07-26T05:36:39.670Z,40.63
2018-07-26T05:37:39.799Z,40.73
2018-07-26T05:38:39.465Z,40.83
2018-07-26T05:39:39.485Z,40.73
2018-07-26T05:40:39.819Z,40.63
2018-07-26T05:41:39.798Z,40.73
2018-07-26T05:42:39.563Z,40.83
2018-07-26T05:43:39.596Z,41.02
2018-07-26T05:44:39.879Z,41.31
2018-07-26T05:45:39.642Z,41.31
2018-07-26T05:46:39.923Z,41.41
2018-07-26T05:47:39.959Z,41.31
2018-07-26T05:48:39.979Z,41.6
2018-07-26T05:49:40.000Z,41.41
2018-07-26T05:50:40.032Z,41.31
2018-07-26T05:51:40.057Z,41.21
2018-07-26T05:52:40.078Z,41.41
2018-07-26T05:53:40.105Z,41.7
2018-07-26T05:54:40.133Z,42.08
2018-07-26T05:55:40.155Z,41.99
2018-07-26T05:56:40.178Z,41.89
2018-07-26T05:57:40.202Z,41.99
2018-07-26T05:58:39.970Z,42.08
2018-07-26T05:59:39.997Z,42.08
2018-07-26T06:00:40.284Z,42.08
2018-07-26T06:01:40.305Z,42.28
2018-07-26T06:02:40.333Z,42.28
2018-07-26T06:03:40.098Z,42.49
2018-07-26T06:04:40.385Z,42.37
2018-07-26T06:05:40.409Z,42.4
2018-07-26T06:06:40.433Z,42.4
2018-07-26T06:07:40.465Z,42.68
2018-07-26T06:08:40.481Z,42.78
2018-07-26T06:09:40.645Z,42.68
2018-07-26T06:10:40.539Z,42.68
2018-07-26T06:11:40.567Z,42.37
2018-07-26T06:12:40.324Z,42.4
2018-07-26T06:13:40.611Z,42.49
2018-07-26T06:14:40.638Z,42.4
2018-07-26T06:15:40.661Z,42.68
2018-07-26T06:16:40.428Z,42.78
2018-07-26T06:17:40.716Z,42.88
2018-07-26T06:18:40.741Z,42.68
2018-07-26T06:19:40.767Z,42.68
2018-07-26T06:20:40.936Z,42.68
2018-07-26T06:21:40.814Z,42.88
2018-07-26T06:22:40.579Z,42.68
2018-07-26T06:23:40.868Z,42.59
2018-07-26T06:24:40.889Z,42.78
2018-07-26T06:25:40.654Z,42.68
2018-07-26T06:26:40.685Z,42.71
2018-07-26T06:27:40.967Z,42.68
2018-07-26T06:28:40.995Z,42.71
2018-07-26T06:29:40.757Z,42.61
2018-07-26T06:30:40.784Z,42.71
2018-07-26T06:31:40.810Z,42.8
2018-07-26T06:32:41.094Z,42.71
2018-07-26T06:33:41.292Z,42.9
2018-07-26T06:34:41.156Z,43
2018-07-26T06:35:40.914Z,43.38
2018-07-26T06:36:40.934Z,42.9
2018-07-26T06:37:41.228Z,42.61
2018-07-26T06:38:40.987Z,42.51
2018-07-26T06:39:41.288Z,42.22
2018-07-26T06:40:41.299Z,42.51
2018-07-26T06:41:41.065Z,42.41
2018-07-26T06:42:41.351Z,42.22
2018-07-26T06:43:41.122Z,42.22
2018-07-26T06:44:41.141Z,41.93
2018-07-26T06:45:41.430Z,41.35
2018-07-26T06:46:41.450Z,41.47
2018-07-26T06:47:41.484Z,41.47
2018-07-26T06:48:41.504Z,41.47
2018-07-26T06:49:41.528Z,41.16
2018-07-26T06:50:41.554Z,40.99
2018-07-26T06:51:41.578Z,40.89
2018-07-26T06:52:41.347Z,40.59
2018-07-26T06:53:41.376Z,40.79
2018-07-26T06:54:41.660Z,40.69
2018-07-26T06:55:41.682Z,40.21
2018-07-26T06:56:41.710Z,40.31
2018-07-26T06:57:41.737Z,40.31
2018-07-26T06:58:41.775Z,40.4
2018-07-26T06:59:41.785Z,40.31
2018-07-26T07:00:41.588Z,40.31
2018-07-26T07:01:41.841Z,40.33
2018-07-26T07:02:41.861Z,40.4
2018-07-26T07:03:41.888Z,40.42
2018-07-26T07:04:41.920Z,40.42
2018-07-26T07:05:41.682Z,40.23
2018-07-26T07:06:42.016Z,40.42
2018-07-26T07:07:41.995Z,40.52
2018-07-26T07:08:41.759Z,40.33
2018-07-26T07:09:42.047Z,40.42
2018-07-26T07:10:42.072Z,40.42
2018-07-26T07:11:42.095Z,40.71
2018-07-26T07:12:42.120Z,40.71
2018-07-26T07:13:41.888Z,40.81
2018-07-26T07:14:42.177Z,40.83
2018-07-26T07:15:41.940Z,41.31
2018-07-26T07:16:42.237Z,41.41
2018-07-26T07:17:42.260Z,41.51
2018-07-26T07:18:42.277Z,41.7
2018-07-26T07:19:42.307Z,41.41
2018-07-26T07:20:42.329Z,41.61
2018-07-26T07:21:42.096Z,41.43
2018-07-26T07:22:42.120Z,41.33
2018-07-26T07:23:42.410Z,41.43
2018-07-26T07:24:42.173Z,41.63
2018-07-26T07:25:42.460Z,41.63
2018-07-26T07:26:42.486Z,41.82
2018-07-26T07:27:42.594Z,41.55
2018-07-26T07:28:42.282Z,41.05
2018-07-26T07:29:42.574Z,41.45
2018-07-26T07:30:42.604Z,41.26
2018-07-26T07:31:42.616Z,41.36
2018-07-26T07:32:42.643Z,41.26
2018-07-26T07:33:42.669Z,41.36
2018-07-26T07:34:42.436Z,41.45
2018-07-26T07:35:42.720Z,41.28
2018-07-26T07:36:42.773Z,41.08
2018-07-26T07:37:42.796Z,40.99
2018-07-26T07:38:42.800Z,40.6
2018-07-26T07:39:42.829Z,40.6
2018-07-26T07:40:42.592Z,41.18
2018-07-26T07:41:42.919Z,40.62
2018-07-26T07:42:42.650Z,40.42
2018-07-26T07:43:42.932Z,40.33
2018-07-26T07:44:42.959Z,40.81
2018-07-26T07:45:42.724Z,40.72
2018-07-26T07:46:43.241Z,39.94
2018-07-26T07:47:43.317Z,39.96
2018-07-26T07:48:42.805Z,40.25
2018-07-26T07:49:43.090Z,39.96
2018-07-26T07:50:42.856Z,39.86
2018-07-26T07:51:43.144Z,39.78
2018-07-26T07:52:42.911Z,39.88
2018-07-26T07:53:43.196Z,39.69
2018-07-26T07:54:43.223Z,39.69
2018-07-26T07:55:43.252Z,39.49
2018-07-26T07:56:43.280Z,39.59
2018-07-26T07:57:43.307Z,39.61
2018-07-26T07:58:43.077Z,39.12
2018-07-26T07:59:43.423Z,39.03
2018-07-26T08:00:43.142Z,39.12
2018-07-26T08:01:43.412Z,38.85
2018-07-26T08:02:43.439Z,38.85
2018-07-26T08:03:43.463Z,38.85
2018-07-26T08:04:43.489Z,38.56
2018-07-26T08:05:43.257Z,38.17
2018-07-26T08:06:43.593Z,37.97
2018-07-26T08:07:43.573Z,38.17
2018-07-26T08:08:43.339Z,38.18
2018-07-26T08:09:43.365Z,38.28
2018-07-26T08:10:43.652Z,38.18
2018-07-26T08:11:43.684Z,37.41
2018-07-26T08:12:43.512Z,37.02
2018-07-26T08:13:43.732Z,37.02
2018-07-26T08:14:43.818Z,37.13
2018-07-26T08:15:43.790Z,36.84
2018-07-26T08:16:43.836Z,36.55
2018-07-26T08:17:43.582Z,36.74
2018-07-26T08:18:43.875Z,36.45
2018-07-26T08:19:43.636Z,35.96
2018-07-26T08:20:43.927Z,36.06
2018-07-26T08:21:43.951Z,35.78
2018-07-26T08:22:43.981Z,35.98
2018-07-26T08:23:43.747Z,35.98
2018-07-26T08:24:44.038Z,35.69
2018-07-26T08:25:44.068Z,35.69
2018-07-26T08:26:44.090Z,35.71
2018-07-26T08:27:44.117Z,35.41
2018-07-26T08:28:44.143Z,35.31
2018-07-26T08:29:43.914Z,35.12
2018-07-26T08:30:44.217Z,34.94
2018-07-26T08:31:44.229Z,34.45
2018-07-26T08:32:44.000Z,34.65
2018-07-26T08:33:44.281Z,34.45
2018-07-26T08:34:44.310Z,34.18
2018-07-26T08:35:44.339Z,34.08
2018-07-26T08:36:44.374Z,34.38
2018-07-26T08:37:44.403Z,33.89
2018-07-26T08:38:44.442Z,34
2018-07-26T08:39:44.450Z,33.7
2018-07-26T08:40:44.484Z,33.22
2018-07-26T08:41:44.509Z,33.41
2018-07-26T08:42:44.273Z,32.82
2018-07-26T08:43:44.322Z,33.04
2018-07-26T08:44:44.590Z,32.75
2018-07-26T08:45:44.360Z,32.17
2018-07-26T08:46:44.647Z,32.27
2018-07-26T08:47:44.414Z,31.78
2018-07-26T08:48:44.703Z,31.31
2018-07-26T08:49:44.472Z,30.82
2018-07-26T08:50:44.761Z,30.62
2018-07-26T08:51:44.528Z,30.52
2018-07-26T08:52:44.816Z,30.04
2018-07-26T08:53:44.844Z,30.05
2018-07-26T08:54:44.876Z,29.85
2018-07-26T08:55:44.641Z,29.36
2018-07-26T08:56:44.670Z,29.27
2018-07-26T08:57:44.958Z,29.36
2018-07-26T08:58:44.989Z,29.28
2018-07-26T08:59:45.019Z,29.48
2018-07-26T09:00:44.786Z,28.99
2018-07-26T09:01:45.079Z,28.99
2018-07-26T09:02:45.163Z,28.41
2018-07-26T09:03:45.137Z,28.61
2018-07-26T09:04:45.165Z,28.22
2018-07-26T09:05:44.932Z,28.22
2018-07-26T09:06:45.217Z,28.41
2018-07-26T09:07:45.254Z,28.13
2018-07-26T09:08:45.278Z,27.55
2018-07-26T09:09:45.053Z,27.45
2018-07-26T09:10:45.368Z,27.45
2018-07-26T09:11:45.381Z,26.87
2018-07-26T09:12:45.394Z,26.78
2018-07-26T09:13:45.489Z,26.87
2018-07-26T09:14:45.453Z,26.78
2018-07-26T09:15:45.490Z,26.78
2018-07-26T09:16:45.512Z,26.18
2018-07-26T09:17:45.541Z,26
2018-07-26T09:18:45.571Z,25.9
2018-07-26T09:19:45.352Z,25.61
2018-07-26T09:20:45.629Z,25.42
2018-07-26T09:21:45.662Z,25.22
2018-07-26T09:22:45.690Z,25.13
2018-07-26T09:23:45.460Z,25.03
2018-07-26T09:24:45.489Z,24.93
2018-07-26T09:25:45.778Z,25.15
2018-07-26T09:26:45.811Z,25.24
2018-07-26T09:27:45.578Z,25.24
2018-07-26T09:28:45.881Z,24.65
2018-07-26T09:29:45.898Z,24.47
2018-07-26T09:30:45.929Z,23.88
2018-07-26T09:31:45.700Z,23.4
2018-07-26T09:32:45.989Z,23.2
2018-07-26T09:33:46.035Z,23.2
2018-07-26T09:34:46.050Z,22.91
2018-07-26T09:35:46.083Z,23.41
2018-07-26T09:36:46.115Z,23.02
2018-07-26T09:37:46.141Z,23.31
2018-07-26T09:38:46.171Z,23.21
2018-07-26T09:39:46.199Z,23.22
2018-07-26T09:40:45.973Z,22.73
2018-07-26T09:41:46.006Z,21.94
2018-07-26T09:42:46.292Z,21.26
2018-07-26T09:43:46.062Z,20.67
2018-07-26T09:44:46.354Z,20.97
2018-07-26T09:45:46.392Z,21.07
2018-07-26T09:46:46.155Z,20.78
2018-07-26T09:47:46.445Z,20.78
2018-07-26T09:48:46.479Z,21.08
2018-07-26T09:49:46.305Z,21.07
2018-07-26T09:50:46.540Z,20.29
2018-07-26T09:51:46.572Z,20.68
2018-07-26T09:52:46.342Z,20.29
2018-07-26T09:53:46.372Z,20.19
2018-07-26T09:54:46.667Z,19.71
2018-07-26T09:55:46.694Z,19.71
2018-07-26T09:56:46.725Z,19.42
2018-07-26T09:57:46.754Z,19.42
2018-07-26T09:58:46.791Z,19.21
2018-07-26T09:59:46.818Z,19.32
2018-07-26T10:00:46.855Z,19.42
2018-07-26T10:01:46.884Z,19.32
2018-07-26T10:02:46.912Z,19.42
2018-07-26T10:03:46.688Z,19.32
2018-07-26T10:04:46.976Z,19.23
2018-07-26T10:05:47.008Z,18.94
2018-07-26T10:06:46.832Z,18.54
2018-07-26T10:07:47.069Z,18.54
2018-07-26T10:08:47.103Z,18.54
2018-07-26T10:09:47.133Z,18.35
2018-07-26T10:10:47.170Z,18.35
2018-07-26T10:11:47.196Z,18.55
2018-07-26T10:12:47.229Z,18.16
2018-07-26T10:13:47.263Z,18.06
2018-07-26T10:14:47.298Z,17.66
2018-07-26T10:15:47.081Z,17.57
2018-07-26T10:16:47.097Z,17.68
2018-07-26T10:17:47.389Z,17.38
2018-07-26T10:18:47.426Z,17.57
2018-07-26T10:19:47.453Z,17.47
2018-07-26T10:20:47.494Z,17.38
2018-07-26T10:21:47.261Z,17.29
2018-07-26T10:22:47.291Z,17.29
2018-07-26T10:23:47.587Z,17.29
2018-07-26T10:24:47.618Z,16.89
2018-07-26T10:25:47.648Z,17.09
2018-07-26T10:26:47.681Z,16.9
2018-07-26T10:27:47.771Z,16.9
2018-07-26T10:28:47.511Z,16.6
2018-07-26T10:29:47.517Z,16.6
2018-07-26T10:30:47.548Z,16.6
2018-07-26T10:31:47.850Z,16.51
2018-07-26T10:32:47.873Z,16.51
2018-07-26T10:33:47.913Z,16.71
2018-07-26T10:34:47.949Z,16.12
2018-07-26T10:35:47.975Z,16.03
2018-07-26T10:36:48.006Z,15.63
2018-07-26T10:37:48.044Z,15.33
2018-07-26T10:38:48.073Z,15.43
2018-07-26T10:39:48.107Z,15.14
2018-07-26T10:40:47.877Z,14.95
2018-07-26T10:41:47.910Z,15.14
2018-07-26T10:42:48.204Z,15.05
2018-07-26T10:43:48.242Z,15.05
2018-07-26T10:44:48.010Z,15.15
2018-07-26T10:45:48.307Z,15.15
2018-07-26T10:46:48.342Z,15.05
2018-07-26T10:47:48.369Z,14.86
2018-07-26T10:48:48.404Z,14.47
2018-07-26T10:49:48.449Z,14.26
2018-07-26T10:50:48.474Z,14.47
2018-07-26T10:51:48.246Z,13.58
2018-07-26T10:52:48.278Z,13.98
2018-07-26T10:53:48.572Z,13.39
2018-07-26T10:54:48.602Z,13.49
2018-07-26T10:55:48.640Z,13.39
2018-07-26T10:56:48.724Z,13.68
2018-07-26T10:57:48.709Z,13.59
2018-07-26T10:58:48.477Z,13.69
2018-07-26T10:59:48.776Z,13.69
2018-07-26T11:00:48.804Z,13.59
2018-07-26T11:01:48.841Z,13.59
2018-07-26T11:02:48.871Z,13.2
2018-07-26T11:03:49.050Z,12.9
2018-07-26T11:04:48.939Z,13
2018-07-26T11:05:48.978Z,13.1
2018-07-26T11:06:48.749Z,12.81
2018-07-26T11:07:49.044Z,12.9
2018-07-26T11:08:48.819Z,13.11
2018-07-26T11:09:48.857Z,13.11
2018-07-26T11:10:49.144Z,12.91
2018-07-26T11:11:49.184Z,13.01
2018-07-26T11:12:49.219Z,12.81
2018-07-26T11:13:49.249Z,12.62
2018-07-26T11:14:49.024Z,12.52
2018-07-26T11:15:49.056Z,11.92
2018-07-26T11:16:49.356Z,12.32
2018-07-26T11:17:49.386Z,12.22
2018-07-26T11:18:49.161Z,12.23
2018-07-26T11:19:49.454Z,11.93
2018-07-26T11:20:49.488Z,12.13
2018-07-26T11:21:49.522Z,12.13
2018-07-26T11:22:49.560Z,12.23
2018-07-26T11:23:49.596Z,12.23
2018-07-26T11:24:49.631Z,12.23
2018-07-26T11:25:49.666Z,12.13
2018-07-26T11:26:49.699Z,11.63
2018-07-26T11:27:49.735Z,11.63
2018-07-26T11:28:49.510Z,11.63
2018-07-26T11:29:49.865Z,11.44
2018-07-26T11:30:49.838Z,11.74
2018-07-26T11:31:49.872Z,11.93
2018-07-26T11:32:49.912Z,11.74
2018-07-26T11:33:49.943Z,11.84
2018-07-26T11:34:49.980Z,11.94
2018-07-26T11:35:49.783Z,11.54
2018-07-26T11:36:50.052Z,11.94
2018-07-26T11:37:49.858Z,11.44
2018-07-26T11:38:50.121Z,11.55
2018-07-26T11:39:50.166Z,11.65
2018-07-26T11:40:50.189Z,11.44
2018-07-26T11:41:50.459Z,11.55
2018-07-26T11:42:50.001Z,11.44
2018-07-26T11:43:50.344Z,11.55
2018-07-26T11:44:50.081Z,11.45
2018-07-26T11:45:50.368Z,11.35
2018-07-26T11:46:50.402Z,11.25
2018-07-26T11:47:50.439Z,11.25
2018-07-26T11:48:50.216Z,10.66
2018-07-26T11:49:50.258Z,10.96
2018-07-26T11:50:50.548Z,10.66
2018-07-26T11:51:50.320Z,10.66
2018-07-26T11:52:50.725Z,11.07
2018-07-26T11:53:50.391Z,10.96
2018-07-26T11:54:50.690Z,10.77
2018-07-26T11:55:50.468Z,10.66
2018-07-26T11:56:50.848Z,10.86
2018-07-26T11:57:50.805Z,10.77
2018-07-26T11:58:50.830Z,10.77
2018-07-26T11:59:50.611Z,10.66
2018-07-26T12:00:50.903Z,10.47
2018-07-26T12:01:50.950Z,10.47
2018-07-26T12:02:50.978Z,10.47
2018-07-26T12:03:51.011Z,9.97
2018-07-26T12:04:51.053Z,9.58
2018-07-26T12:05:50.823Z,9.08
2018-07-26T12:06:51.118Z,8.48
2018-07-26T12:07:50.896Z,8.28
2018-07-26T12:08:50.938Z,7.88
2018-07-26T12:09:51.231Z,8.28
2018-07-26T12:10:51.005Z,8.09
2018-07-26T12:11:51.303Z,7.79
2018-07-26T12:12:51.342Z,8.58
2018-07-26T12:13:51.380Z,7.98
2018-07-26T12:14:51.414Z,8.49
2018-07-26T12:15:51.189Z,8.48
2018-07-26T12:16:51.482Z,8.59
2018-07-26T12:17:51.262Z,8.59
2018-07-26T12:18:51.296Z,8.69
2018-07-26T12:19:51.592Z,8.69
2018-07-26T12:20:51.631Z,8.09
2018-07-26T12:21:51.669Z,7.99
2018-07-26T12:22:51.704Z,8.29
2018-07-26T12:23:51.740Z,8.19
2018-07-26T12:24:51.515Z,8.49
2018-07-26T12:25:51.813Z,8.09
2018-07-26T12:26:51.671Z,8.19
2018-07-26T12:27:51.885Z,8.09
2018-07-26T12:28:51.922Z,7.89
2018-07-26T12:29:51.961Z,7.39
2018-07-26T12:30:51.740Z,7.69
2018-07-26T12:31:52.032Z,7.29
2018-07-26T12:32:52.074Z,6.99
2018-07-26T12:33:52.108Z,7.29
2018-07-26T12:34:52.145Z,6.8
2018-07-26T12:35:51.942Z,6.6
2018-07-26T12:36:51.956Z,6.59
2018-07-26T12:37:52.255Z,6.8
2018-07-26T12:38:52.032Z,6.4
2018-07-26T12:39:52.334Z,5.8
2018-07-26T12:40:52.369Z,5.5
2018-07-26T12:41:52.405Z,6.1
2018-07-26T12:42:52.448Z,6.1
2018-07-26T12:43:52.479Z,5.99
2018-07-26T12:44:52.514Z,6.4
2018-07-26T12:45:52.556Z,6.4
2018-07-26T12:46:52.596Z,6.4
2018-07-26T12:47:52.740Z,6.4
2018-07-26T12:48:52.665Z,6.4
2018-07-26T12:49:52.440Z,6.4
2018-07-26T12:50:52.738Z,6.6
2018-07-26T12:51:52.776Z,6.9
2018-07-26T12:52:52.817Z,6.9
2018-07-26T12:53:52.851Z,7.1
2018-07-26T12:54:53.040Z,7.1
2018-07-26T12:55:52.928Z,7
2018-07-26T12:56:52.964Z,7.1
2018-07-26T12:57:53.001Z,6.9
2018-07-26T12:58:52.779Z,6.9